Mansfield, Washington
Current Conditions -  °F | °C
As of 2:53 PM on Thursday 27 Nov 2014 (Local Time) from KEPH Reporting Station
Clear Clear  
Wind Chill: 59°   Ceiling: Unl
Heat Index: 59°   Visibility: 10mi
Dew Point: 46°   Wind: 8mph
Humidity: 62%   Direction: 190°S
Pressure: 29.75"   Gusts: NA
Location:  47.81°N, 119.64°W
Report Text: KEPH 272253Z AUTO 19007KT 10SM CLR 15/08 A2975 RMK AO2 SLP079 T01500078
Loading
Personal Weather Stations






























Interactive Weather Map New forecast layout! Learn more

10-Day Weather Forecast

Advertisements
Track Severe Weather on mobile